createdAt,value
2022-08-23T00:02:02.194Z,2.22
2022-08-23T00:04:34.968Z,1.80
2022-08-23T00:07:02.688Z,1.70
2022-08-23T00:09:29.486Z,1.30
2022-08-23T00:12:05.014Z,1.95
2022-08-23T00:14:32.938Z,1.58
2022-08-23T00:16:59.945Z,1.83
2022-08-23T00:19:26.808Z,1.77
2022-08-23T00:21:54.821Z,1.73
2022-08-23T00:24:24.070Z,1.83
2022-08-23T00:27:05.071Z,1.52
2022-08-23T00:29:33.019Z,2.25
2022-08-23T00:32:00.380Z,1.60
2022-08-23T00:34:27.165Z,1.50
2022-08-23T00:36:53.797Z,1.50
2022-08-23T00:39:20.782Z,2.08
2022-08-23T00:41:48.072Z,1.50
2022-08-23T00:44:37.173Z,1.67
2022-08-23T00:47:23.054Z,1.65
2022-08-23T00:49:55.341Z,1.90
2022-08-23T00:52:30.502Z,1.58
2022-08-23T00:54:57.648Z,1.60
2022-08-23T00:57:24.581Z,1.70
2022-08-23T00:59:51.089Z,2.38
2022-08-23T01:02:17.816Z,1.45
2022-08-23T01:04:47.046Z,1.35
2022-08-23T01:07:22.770Z,1.77
2022-08-23T01:09:53.201Z,2.00
2022-08-23T01:12:32.713Z,1.92
2022-08-23T01:15:02.335Z,2.17
2022-08-23T01:17:30.851Z,1.90
2022-08-23T01:20:03.135Z,2.00
2022-08-23T01:22:41.973Z,1.95
2022-08-23T01:25:10.031Z,1.70
2022-08-23T01:27:36.798Z,1.85
2022-08-23T01:30:05.173Z,1.40
2022-08-23T01:32:32.607Z,1.83
2022-08-23T01:34:59.114Z,1.70
2022-08-23T01:37:27.895Z,1.88
2022-08-23T01:39:55.330Z,1.88
2022-08-23T01:42:21.808Z,1.85
2022-08-23T01:44:48.199Z,2.00
2022-08-23T01:47:14.787Z,1.92
2022-08-23T01:49:41.234Z,2.08
2022-08-23T01:52:07.606Z,2.63
2022-08-23T01:54:34.346Z,1.80
2022-08-23T01:57:00.759Z,1.67
2022-08-23T01:59:27.204Z,1.75
2022-08-23T02:01:53.746Z,1.75
2022-08-23T02:04:22.330Z,1.90
2022-08-23T02:06:48.865Z,1.70
2022-08-23T02:09:17.513Z,1.85
2022-08-23T02:11:44.676Z,1.60
2022-08-23T02:14:14.581Z,1.52
2022-08-23T02:16:43.937Z,1.70
2022-08-23T02:19:26.494Z,1.38
2022-08-23T02:21:56.003Z,1.50
2022-08-23T02:24:23.599Z,1.65
2022-08-23T02:26:56.426Z,1.75
2022-08-23T02:29:24.223Z,1.80
2022-08-23T02:31:51.155Z,2.03
2022-08-23T02:34:18.581Z,1.90
2022-08-23T02:36:45.276Z,1.40
2022-08-23T02:39:12.484Z,1.70
2022-08-23T02:41:39.254Z,1.70
2022-08-23T02:44:05.870Z,1.80
2022-08-23T02:46:32.266Z,1.50
2022-08-23T02:48:58.665Z,1.77
2022-08-23T02:51:25.165Z,1.70
2022-08-23T02:53:51.627Z,1.80
2022-08-23T02:56:21.539Z,1.52
2022-08-23T02:58:53.977Z,1.60
2022-08-23T03:01:26.029Z,1.77
2022-08-23T03:03:52.812Z,1.90
2022-08-23T03:06:25.863Z,1.45
2022-08-23T03:08:52.902Z,1.50
2022-08-23T03:11:23.354Z,1.90
2022-08-23T03:13:50.693Z,1.30
2022-08-23T03:16:19.791Z,1.73
2022-08-23T03:18:46.320Z,1.45
2022-08-23T03:21:12.714Z,1.80
2022-08-23T03:23:39.875Z,1.50
2022-08-23T03:26:07.852Z,1.40
2022-08-23T03:28:35.176Z,1.80
2022-08-23T03:31:01.953Z,1.80
2022-08-23T03:33:30.652Z,1.75
2022-08-23T03:36:04.430Z,1.55
2022-08-23T03:38:30.875Z,1.45
2022-08-23T03:40:57.276Z,1.95
2022-08-23T03:43:23.792Z,1.67
2022-08-23T03:45:50.215Z,1.85
2022-08-23T03:48:16.823Z,2.22
2022-08-23T03:50:43.406Z,1.73
2022-08-23T03:53:12.049Z,1.90
2022-08-23T03:55:42.630Z,1.75
2022-08-23T03:58:10.137Z,2.08
2022-08-23T04:00:36.726Z,1.83
2022-08-23T04:03:03.465Z,1.73
2022-08-23T04:05:29.844Z,1.92
2022-08-23T04:07:56.290Z,2.03
2022-08-23T04:10:22.692Z,1.77
2022-08-23T04:12:49.771Z,1.55
2022-08-23T04:15:16.305Z,1.50
2022-08-23T04:17:42.886Z,2.00
2022-08-23T04:20:09.864Z,1.73
2022-08-23T04:22:36.310Z,2.00
2022-08-23T04:25:05.451Z,1.80
2022-08-23T04:27:51.985Z,1.70
2022-08-23T04:30:20.080Z,2.00
2022-08-23T04:32:47.728Z,2.13
2022-08-23T04:35:14.599Z,2.00
2022-08-23T04:37:41.182Z,2.22
2022-08-23T04:40:26.638Z,2.10
2022-08-23T04:42:53.090Z,2.30
2022-08-23T04:45:19.457Z,1.60
2022-08-23T04:47:45.882Z,1.70
2022-08-23T04:50:12.524Z,2.33
2022-08-23T04:52:38.978Z,1.90
2022-08-23T04:55:05.681Z,1.67
2022-08-23T04:57:32.548Z,1.83
2022-08-23T04:59:58.942Z,1.67
2022-08-23T05:02:25.330Z,2.45
2022-08-23T05:04:51.816Z,2.03
2022-08-23T05:07:18.217Z,2.42
2022-08-23T05:09:44.706Z,2.00
2022-08-23T05:12:11.331Z,2.20
2022-08-23T05:14:38.079Z,1.85
2022-08-23T05:17:04.660Z,1.90
2022-08-23T05:19:34.160Z,1.83
2022-08-23T05:22:03.862Z,1.83
2022-08-23T05:24:30.262Z,2.33
2022-08-23T05:26:56.655Z,2.22
2022-08-23T05:29:23.102Z,1.92
2022-08-23T05:31:49.742Z,2.53
2022-08-23T05:34:16.417Z,2.42
2022-08-23T05:36:55.239Z,2.15
2022-08-23T05:39:32.837Z,2.15
2022-08-23T05:42:02.870Z,2.57
2022-08-23T05:44:29.360Z,2.58
2022-08-23T05:47:00.941Z,2.30
2022-08-23T05:49:28.284Z,2.13
2022-08-23T05:51:54.702Z,2.53
2022-08-23T05:54:21.135Z,2.20
2022-08-23T05:56:50.558Z,2.60
2022-08-23T05:59:17.286Z,2.42
2022-08-23T06:01:44.381Z,2.58
2022-08-23T06:04:12.457Z,2.45
2022-08-23T06:06:39.883Z,2.38
2022-08-23T06:09:07.332Z,2.25
2022-08-23T06:11:33.967Z,2.40
2022-08-23T06:14:01.850Z,2.72
2022-08-23T06:16:29.903Z,2.58
2022-08-23T06:18:57.691Z,2.30
2022-08-23T06:21:25.140Z,2.30
2022-08-23T06:23:52.117Z,2.30
2022-08-23T06:26:19.875Z,2.38
2022-08-23T06:28:50.775Z,2.42
2022-08-23T06:31:41.460Z,2.10
2022-08-23T06:34:09.002Z,2.10
2022-08-23T06:36:36.602Z,1.98
2022-08-23T06:39:04.742Z,2.20
2022-08-23T06:41:31.121Z,2.00
2022-08-23T06:43:57.559Z,2.00
2022-08-23T06:46:25.688Z,2.22
2022-08-23T06:48:54.801Z,2.35
2022-08-23T06:51:21.192Z,2.08
2022-08-23T06:53:47.582Z,2.15
2022-08-23T06:56:14.299Z,1.90
2022-08-23T06:58:40.958Z,1.63
2022-08-23T07:01:42.040Z,1.90
2022-08-23T07:04:07.978Z,1.80
2022-08-23T07:06:34.634Z,1.85
2022-08-23T07:09:01.537Z,1.90
2022-08-23T07:11:31.309Z,2.42
2022-08-23T07:14:01.821Z,1.73
2022-08-23T07:16:40.788Z,1.65
2022-08-23T07:19:07.440Z,1.70
2022-08-23T07:21:33.847Z,1.88
2022-08-23T07:24:00.246Z,1.38
2022-08-23T07:26:27.550Z,1.70
2022-08-23T07:28:57.105Z,1.77
2022-08-23T07:31:28.602Z,1.77
2022-08-23T07:33:55.853Z,1.70
2022-08-23T07:36:28.869Z,1.80
2022-08-23T07:38:55.764Z,1.45
2022-08-23T07:41:28.904Z,1.75
2022-08-23T07:43:56.196Z,1.77
2022-08-23T07:46:22.593Z,2.15
2022-08-23T07:48:54.378Z,1.80
2022-08-23T07:51:23.989Z,1.48
2022-08-23T07:53:50.415Z,1.50
2022-08-23T07:56:17.551Z,1.08
2022-08-23T07:58:44.585Z,1.73
2022-08-23T08:01:12.572Z,1.30
2022-08-23T08:03:39.551Z,1.60
2022-08-23T08:06:07.163Z,1.58
2022-08-23T08:08:35.693Z,1.50
2022-08-23T08:11:02.076Z,1.48
2022-08-23T08:13:28.487Z,1.38
2022-08-23T08:15:55.213Z,1.40
2022-08-23T08:18:21.659Z,1.42
2022-08-23T08:20:48.221Z,1.70
2022-08-23T08:23:14.647Z,1.40
2022-08-23T08:25:41.085Z,1.45
2022-08-23T08:28:11.466Z,2.00
2022-08-23T08:30:42.024Z,1.10
2022-08-23T08:33:08.401Z,1.30
2022-08-23T08:35:34.840Z,1.15
2022-08-23T08:38:02.160Z,1.58
2022-08-23T08:40:31.473Z,1.50
2022-08-23T08:43:05.678Z,1.33
2022-08-23T08:45:58.931Z,1.38
2022-08-23T08:48:26.221Z,1.23
2022-08-23T08:50:57.383Z,1.52
2022-08-23T08:53:31.934Z,1.52
2022-08-23T08:56:00.853Z,1.95
2022-08-23T08:58:27.376Z,1.50
2022-08-23T09:00:56.714Z,1.20
2022-08-23T09:03:24.197Z,1.08
2022-08-23T09:06:05.836Z,1.00
2022-08-23T09:08:58.735Z,1.05
2022-08-23T09:11:27.970Z,1.17
2022-08-23T09:14:31.751Z,1.73
2022-08-23T09:17:02.588Z,1.30
2022-08-23T09:19:30.213Z,1.10
2022-08-23T09:21:58.988Z,1.17
2022-08-23T09:24:26.248Z,0.82
2022-08-23T09:26:56.325Z,1.00
2022-08-23T09:29:33.675Z,1.33
2022-08-23T09:32:06.011Z,1.10
2022-08-23T09:34:34.674Z,1.13
2022-08-23T09:37:09.894Z,1.20
2022-08-23T09:39:37.590Z,1.10
2022-08-23T09:42:04.596Z,1.20
2022-08-23T09:44:39.373Z,1.00
2022-08-23T09:47:14.597Z,1.35
2022-08-23T09:49:42.687Z,1.10
2022-08-23T09:52:12.871Z,0.80
2022-08-23T09:55:00.036Z,1.10
2022-08-23T09:57:30.127Z,0.90
2022-08-23T10:00:01.630Z,1.08
2022-08-23T10:02:35.307Z,1.30
2022-08-23T10:05:04.391Z,1.10
2022-08-23T10:07:35.902Z,0.90
2022-08-23T10:10:14.952Z,1.27
2022-08-23T10:12:41.760Z,1.00
2022-08-23T10:15:09.548Z,1.08
2022-08-23T10:17:42.056Z,1.00
2022-08-23T10:20:31.575Z,0.80
2022-08-23T10:22:57.923Z,0.93
2022-08-23T10:25:37.305Z,0.98
2022-08-23T10:28:35.762Z,0.85
2022-08-23T10:31:11.936Z,0.90
2022-08-23T10:33:50.721Z,0.98
2022-08-23T10:36:23.253Z,1.05
2022-08-23T10:38:49.620Z,0.98
2022-08-23T10:41:16.093Z,0.90
2022-08-23T10:44:09.031Z,1.17
2022-08-23T10:46:39.956Z,0.85
2022-08-23T10:49:07.958Z,0.93
2022-08-23T10:51:36.288Z,0.88
2022-08-23T10:54:18.712Z,1.13
2022-08-23T10:56:48.668Z,1.00
2022-08-23T10:59:20.367Z,0.90
2022-08-23T11:01:49.987Z,0.90
2022-08-23T11:04:35.239Z,1.00
2022-08-23T11:07:14.435Z,0.95
2022-08-23T11:10:04.307Z,0.82
2022-08-23T11:12:51.204Z,0.98
2022-08-23T11:15:30.583Z,0.90
2022-08-23T11:17:59.028Z,0.73
2022-08-23T11:20:44.366Z,0.90
2022-08-23T11:23:11.782Z,0.85
2022-08-23T11:25:39.765Z,0.90
2022-08-23T11:28:24.177Z,1.30
2022-08-23T11:31:11.796Z,1.10
2022-08-23T11:33:57.143Z,0.70
2022-08-23T11:36:24.634Z,0.80
2022-08-23T11:38:51.014Z,1.15
2022-08-23T11:41:20.410Z,0.95
2022-08-23T11:44:10.874Z,1.45
2022-08-23T11:46:51.165Z,1.02
2022-08-23T11:49:23.752Z,0.82
2022-08-23T11:52:08.856Z,0.90
2022-08-23T11:54:54.018Z,0.80
2022-08-23T11:57:36.190Z,1.10
2022-08-23T12:00:03.542Z,0.70
2022-08-23T12:02:37.009Z,0.60
2022-08-23T12:05:37.294Z,0.77
2022-08-23T12:08:04.266Z,1.05
2022-08-23T12:10:45.268Z,1.00
2022-08-23T12:13:20.841Z,0.98
2022-08-23T12:16:06.234Z,0.85
2022-08-23T12:18:37.402Z,0.80
2022-08-23T12:21:06.153Z,0.73
2022-08-23T12:23:43.001Z,0.65
2022-08-23T12:26:12.712Z,1.52
2022-08-23T12:28:39.546Z,1.13
2022-08-23T12:31:23.891Z,0.90
2022-08-23T12:34:04.898Z,0.93
2022-08-23T12:36:37.009Z,0.80
2022-08-23T12:39:24.476Z,1.48
2022-08-23T12:42:02.880Z,0.73
2022-08-23T12:44:29.635Z,0.90
2022-08-23T12:47:10.430Z,0.70
2022-08-23T12:49:37.198Z,0.93
2022-08-23T12:52:07.461Z,0.90
2022-08-23T12:54:35.850Z,1.13
2022-08-23T12:57:09.821Z,0.90
2022-08-23T12:59:47.485Z,1.13
2022-08-23T13:02:19.639Z,0.90
2022-08-23T13:04:46.509Z,1.15
2022-08-23T13:07:15.675Z,1.40
2022-08-23T13:09:43.165Z,1.20
2022-08-23T13:12:21.316Z,1.50
2022-08-23T13:14:49.009Z,1.50
2022-08-23T13:17:18.310Z,1.60
2022-08-23T13:19:45.837Z,1.73
2022-08-23T13:22:12.282Z,1.70
2022-08-23T13:24:40.402Z,1.88
2022-08-23T13:27:11.381Z,1.60
2022-08-23T13:29:48.905Z,1.52
2022-08-23T13:32:27.076Z,2.13
2022-08-23T13:34:53.658Z,1.52
2022-08-23T13:37:23.790Z,2.10
2022-08-23T13:39:52.478Z,1.45
2022-08-23T13:42:36.646Z,1.25
2022-08-23T13:45:07.161Z,1.70
2022-08-23T13:47:35.802Z,1.25
2022-08-23T13:50:09.769Z,2.15
2022-08-23T13:53:02.776Z,1.40
2022-08-23T13:55:25.180Z,1.77
2022-08-23T13:57:51.806Z,2.08
2022-08-23T14:00:19.555Z,1.58
2022-08-23T14:02:49.070Z,1.98
2022-08-23T14:05:17.373Z,1.90
2022-08-23T14:07:46.089Z,1.88
2022-08-23T14:10:12.653Z,1.60
2022-08-23T14:12:39.217Z,1.80
2022-08-23T14:15:10.587Z,1.55
2022-08-23T14:17:48.010Z,1.73
2022-08-23T14:20:33.352Z,1.70
2022-08-23T14:23:11.456Z,1.88
2022-08-23T14:25:38.924Z,1.70
2022-08-23T14:28:05.383Z,1.80
2022-08-23T14:30:33.101Z,1.83
2022-08-23T14:33:00.415Z,1.52
2022-08-23T14:35:30.337Z,1.58
2022-08-23T14:40:31.380Z,1.88
2022-08-23T14:42:58.041Z,1.77
2022-08-23T14:45:24.482Z,1.67
2022-08-23T14:47:50.866Z,1.80
2022-08-23T14:50:17.302Z,1.58
2022-08-23T14:52:45.775Z,1.27
2022-08-23T14:55:12.668Z,1.65
2022-08-23T14:57:39.238Z,1.38
2022-08-23T15:00:07.748Z,1.63
2022-08-23T15:02:36.390Z,1.80
2022-08-23T15:05:03.557Z,1.58
2022-08-23T15:07:29.967Z,1.60
2022-08-23T15:09:56.346Z,1.30
2022-08-23T15:15:12.272Z,1.50
2022-08-23T15:17:44.666Z,1.50
2022-08-23T15:20:11.330Z,1.70
2022-08-23T15:22:55.129Z,1.70
2022-08-23T15:25:23.058Z,2.22
2022-08-23T15:27:50.840Z,1.80
2022-08-23T15:30:19.622Z,1.85
2022-08-23T15:32:52.466Z,1.42
2022-08-23T15:35:23.616Z,1.90
2022-08-23T15:37:50.204Z,1.50
2022-08-23T15:40:16.686Z,1.60
2022-08-23T15:42:43.145Z,1.60
2022-08-23T15:45:09.961Z,1.25
2022-08-23T15:47:41.760Z,1.63
2022-08-23T15:50:08.437Z,1.33
2022-08-23T15:52:34.889Z,1.60
2022-08-23T15:55:01.306Z,2.45
2022-08-23T15:57:28.582Z,1.80
2022-08-23T15:59:57.758Z,2.13
2022-08-23T16:02:24.366Z,1.90
2022-08-23T16:04:50.813Z,1.60
2022-08-23T16:07:17.421Z,1.70
2022-08-23T16:09:44.018Z,1.77
2022-08-23T16:12:10.468Z,1.60
2022-08-23T16:14:38.480Z,1.25
2022-08-23T16:17:05.460Z,1.80
2022-08-23T16:19:32.784Z,1.77
2022-08-23T16:21:59.241Z,1.85
2022-08-23T16:24:27.763Z,1.30
2022-08-23T16:26:54.269Z,2.20
2022-08-23T16:29:21.633Z,1.30
2022-08-23T16:31:48.207Z,1.13
2022-08-23T16:34:16.769Z,1.80
2022-08-23T16:36:44.736Z,1.40
2022-08-23T16:39:11.608Z,1.30
2022-08-23T16:41:38.369Z,1.42
2022-08-23T16:44:05.154Z,1.60
2022-08-23T16:46:31.630Z,1.20
2022-08-23T16:48:58.296Z,1.73
2022-08-23T16:51:24.877Z,1.50
2022-08-23T16:54:01.653Z,1.30
2022-08-23T16:56:29.877Z,1.48
2022-08-23T16:58:56.855Z,1.70
2022-08-23T17:01:23.410Z,1.55
2022-08-23T17:03:50.604Z,1.63
2022-08-23T17:06:18.155Z,1.30
2022-08-23T17:08:45.068Z,1.40
2022-08-23T17:11:13.833Z,1.50
2022-08-23T17:13:40.840Z,1.77
2022-08-23T17:16:07.757Z,1.50
2022-08-23T17:18:34.293Z,1.70
2022-08-23T17:21:02.397Z,1.52
2022-08-23T17:23:28.797Z,1.45
2022-08-23T17:25:58.319Z,1.60
2022-08-23T17:28:24.701Z,1.40
2022-08-23T17:30:51.243Z,1.33
2022-08-23T17:33:17.622Z,1.83
2022-08-23T17:35:45.512Z,1.50
2022-08-23T17:38:12.128Z,1.60
2022-08-23T17:40:39.666Z,1.40
2022-08-23T17:43:09.212Z,1.70
2022-08-23T17:45:40.215Z,1.67
2022-08-23T17:48:06.692Z,2.22
2022-08-23T17:50:33.466Z,1.73
2022-08-23T17:53:00.012Z,1.90
2022-08-23T17:55:26.437Z,2.25
2022-08-23T17:58:02.385Z,1.80
2022-08-23T18:00:32.384Z,1.70
2022-08-23T18:02:58.941Z,1.70
2022-08-23T18:05:26.068Z,1.77
2022-08-23T18:07:52.548Z,2.25
2022-08-23T18:10:20.315Z,1.90
2022-08-23T18:12:46.698Z,1.50
2022-08-23T18:15:13.303Z,1.83
2022-08-23T18:17:40.197Z,1.80
2022-08-23T18:20:08.442Z,1.73
2022-08-23T18:22:37.144Z,1.60
2022-08-23T18:25:07.950Z,1.70
2022-08-23T18:30:20.263Z,1.80
2022-08-23T18:32:46.846Z,1.58
2022-08-23T18:35:13.373Z,1.75
2022-08-23T18:37:39.828Z,1.70
2022-08-23T18:40:09.644Z,1.80
2022-08-23T18:42:36.731Z,1.73
2022-08-23T18:45:04.024Z,1.95
2022-08-23T18:47:30.421Z,1.95
2022-08-23T18:49:56.934Z,1.80
2022-08-23T18:52:23.336Z,1.80
2022-08-23T18:54:49.762Z,2.05
2022-08-23T18:57:17.780Z,1.73
2022-08-23T18:59:44.449Z,3.03
2022-08-23T19:02:11.083Z,1.83
2022-08-23T19:04:37.577Z,1.90
2022-08-23T19:07:05.089Z,2.22
2022-08-23T19:09:31.533Z,1.83
2022-08-23T19:12:01.174Z,1.90
2022-08-23T19:14:27.849Z,2.20
2022-08-23T19:16:55.140Z,2.00
2022-08-23T19:19:22.221Z,1.83
2022-08-23T19:21:50.221Z,2.08
2022-08-23T19:24:16.628Z,1.90
2022-08-23T19:26:47.396Z,2.22
2022-08-23T19:29:15.988Z,1.80
2022-08-23T19:31:47.929Z,1.65
2022-08-23T19:34:15.483Z,1.90
2022-08-23T19:37:00.306Z,2.10
2022-08-23T19:39:28.286Z,1.95
2022-08-23T19:41:54.691Z,1.75
2022-08-23T19:44:21.370Z,2.10
2022-08-23T19:46:48.368Z,1.85
2022-08-23T19:49:15.053Z,2.20
2022-08-23T19:51:41.784Z,1.70
2022-08-23T19:54:11.091Z,2.28
2022-08-23T19:56:42.630Z,2.20
2022-08-23T19:59:13.420Z,1.98
2022-08-23T20:01:40.352Z,1.80
2022-08-23T20:04:06.852Z,2.30
2022-08-23T20:06:33.609Z,1.70
2022-08-23T20:09:00.102Z,2.08
2022-08-23T20:11:27.902Z,2.10
2022-08-23T20:13:56.577Z,2.80
2022-08-23T20:16:25.753Z,2.42
2022-08-23T20:18:52.341Z,2.40
2022-08-23T20:21:18.768Z,2.22
2022-08-23T20:24:03.272Z,2.42
2022-08-23T20:26:40.803Z,2.20
2022-08-23T20:29:08.628Z,2.30
2022-08-23T20:31:36.391Z,2.20
2022-08-23T20:34:04.554Z,2.60
2022-08-23T20:36:31.796Z,2.10
2022-08-23T20:38:59.931Z,3.47
2022-08-23T20:41:32.650Z,2.17
2022-08-23T20:44:00.148Z,2.42
2022-08-23T20:46:26.584Z,2.65
2022-08-23T20:48:53.539Z,2.25
2022-08-23T20:51:20.409Z,2.20
2022-08-23T20:53:46.972Z,2.33
2022-08-23T20:56:13.491Z,2.85
2022-08-23T20:58:40.058Z,2.50
2022-08-23T21:01:10.274Z,3.70
2022-08-23T21:03:38.206Z,4.28
2022-08-23T21:06:05.732Z,3.78
2022-08-23T21:08:33.005Z,2.97
2022-08-23T21:11:01.758Z,3.10
2022-08-23T21:13:28.494Z,2.55
2022-08-23T21:15:54.944Z,2.45
2022-08-23T21:18:21.356Z,2.50
2022-08-23T21:20:47.791Z,2.72
2022-08-23T21:23:14.275Z,2.50
2022-08-23T21:25:41.410Z,2.40
2022-08-23T21:28:08.296Z,2.40
2022-08-23T21:30:34.672Z,2.42
2022-08-23T21:33:02.713Z,2.50
2022-08-23T21:35:29.926Z,2.20
2022-08-23T21:37:56.313Z,2.67
2022-08-23T21:40:22.929Z,2.90
2022-08-23T21:42:49.393Z,3.00
2022-08-23T21:45:18.561Z,3.17
2022-08-23T21:47:44.975Z,3.05
2022-08-23T21:50:11.546Z,2.58
2022-08-23T21:52:37.990Z,3.08
2022-08-23T21:55:04.573Z,3.20
2022-08-23T21:57:31.297Z,2.90
2022-08-23T21:59:57.680Z,2.83
2022-08-23T22:02:24.866Z,2.55
2022-08-23T22:04:51.290Z,2.47
2022-08-23T22:07:17.656Z,2.63
2022-08-23T22:09:44.040Z,2.67
2022-08-23T22:12:10.457Z,2.40
2022-08-23T22:14:37.136Z,2.50
2022-08-23T22:17:03.744Z,2.28
2022-08-23T22:19:30.166Z,2.75
2022-08-23T22:21:56.680Z,2.65
2022-08-23T22:24:25.875Z,2.30
2022-08-23T22:26:52.872Z,2.78
2022-08-23T22:29:19.242Z,2.40
2022-08-23T22:31:47.807Z,3.50
2022-08-23T22:34:14.310Z,2.30
2022-08-23T22:36:41.956Z,2.30
2022-08-23T22:39:08.435Z,2.50
2022-08-23T22:41:35.017Z,2.92
2022-08-23T22:44:02.810Z,2.80
2022-08-23T22:46:30.423Z,2.63
2022-08-23T22:48:57.225Z,2.72
2022-08-23T22:51:25.261Z,2.33
2022-08-23T22:53:52.612Z,2.38
2022-08-23T22:56:20.612Z,2.50
2022-08-23T22:58:47.855Z,2.67
2022-08-23T23:03:45.875Z,2.80
2022-08-23T23:06:12.526Z,2.90
2022-08-23T23:08:39.376Z,2.95
2022-08-23T23:11:07.268Z,2.75
2022-08-23T23:13:34.029Z,3.10
2022-08-23T23:16:04.722Z,2.90
2022-08-23T23:18:31.113Z,2.90
2022-08-23T23:20:58.754Z,3.03
2022-08-23T23:23:25.260Z,3.28
2022-08-23T23:25:51.841Z,3.05
2022-08-23T23:28:19.111Z,2.67
2022-08-23T23:30:46.403Z,3.13
2022-08-23T23:33:13.497Z,3.08
2022-08-23T23:35:40.430Z,2.75
2022-08-23T23:38:07.340Z,2.53
2022-08-23T23:40:33.974Z,2.75
2022-08-23T23:43:00.507Z,2.90
2022-08-23T23:45:27.933Z,2.40
2022-08-23T23:47:54.818Z,2.60
2022-08-23T23:50:21.480Z,2.67
2022-08-23T23:52:51.061Z,3.15
2022-08-23T23:55:18.586Z,2.92
2022-08-23T23:57:45.466Z,2.90
